sensor_id;sensor_type;location;lat;lon;timestamp;P1;durP1;ratioP1;P2;durP2;ratioP2
10947;SDS011;5526;42.070;24.752;2024-01-30T00:00:30;7.63;;;5.43;;
10947;SDS011;5526;42.070;24.752;2024-01-30T00:02:57;4.85;;;4.30;;
10947;SDS011;5526;42.070;24.752;2024-01-30T00:05:24;4.10;;;3.55;;
10947;SDS011;5526;42.070;24.752;2024-01-30T00:07:51;4.15;;;3.75;;
10947;SDS011;5526;42.070;24.752;2024-01-30T00:10:20;4.50;;;4.00;;
10947;SDS011;5526;42.070;24.752;2024-01-30T00:12:47;5.32;;;4.80;;
10947;SDS011;5526;42.070;24.752;2024-01-30T00:15:14;4.50;;;3.95;;
10947;SDS011;5526;42.070;24.752;2024-01-30T00:17:41;4.03;;;3.53;;
10947;SDS011;5526;42.070;24.752;2024-01-30T00:20:09;3.47;;;3.15;;
10947;SDS011;5526;42.070;24.752;2024-01-30T00:22:37;3.58;;;3.28;;
10947;SDS011;5526;42.070;24.752;2024-01-30T00:25:04;5.20;;;4.25;;
10947;SDS011;5526;42.070;24.752;2024-01-30T00:27:32;4.43;;;3.70;;
10947;SDS011;5526;42.070;24.752;2024-01-30T00:29:59;6.43;;;3.90;;
10947;SDS011;5526;42.070;24.752;2024-01-30T00:32:27;7.68;;;4.63;;
10947;SDS011;5526;42.070;24.752;2024-01-30T00:34:54;7.18;;;4.13;;
10947;SDS011;5526;42.070;24.752;2024-01-30T00:37:21;7.63;;;4.57;;
10947;SDS011;5526;42.070;24.752;2024-01-30T00:39:48;9.70;;;4.55;;
10947;SDS011;5526;42.070;24.752;2024-01-30T00:42:15;14.55;;;5.60;;
10947;SDS011;5526;42.070;24.752;2024-01-30T00:44:44;10.95;;;5.07;;
10947;SDS011;5526;42.070;24.752;2024-01-30T00:47:11;8.90;;;4.85;;
10947;SDS011;5526;42.070;24.752;2024-01-30T00:49:38;6.60;;;4.70;;
10947;SDS011;5526;42.070;24.752;2024-01-30T00:52:05;9.43;;;5.65;;
10947;SDS011;5526;42.070;24.752;2024-01-30T00:54:33;5.07;;;4.05;;
10947;SDS011;5526;42.070;24.752;2024-01-30T00:57:00;4.43;;;3.35;;
10947;SDS011;5526;42.070;24.752;2024-01-30T00:59:27;2.75;;;2.53;;
10947;SDS011;5526;42.070;24.752;2024-01-30T01:01:55;3.88;;;2.80;;
10947;SDS011;5526;42.070;24.752;2024-01-30T01:04:22;4.95;;;2.90;;
10947;SDS011;5526;42.070;24.752;2024-01-30T01:06:49;3.15;;;2.60;;
10947;SDS011;5526;42.070;24.752;2024-01-30T01:09:17;4.90;;;3.53;;
10947;SDS011;5526;42.070;24.752;2024-01-30T01:11:44;6.88;;;3.60;;
10947;SDS011;5526;42.070;24.752;2024-01-30T01:14:11;5.55;;;3.40;;
10947;SDS011;5526;42.070;24.752;2024-01-30T01:16:38;6.32;;;3.60;;
10947;SDS011;5526;42.070;24.752;2024-01-30T01:19:06;5.18;;;3.65;;
10947;SDS011;5526;42.070;24.752;2024-01-30T01:21:34;7.35;;;3.72;;
10947;SDS011;5526;42.070;24.752;2024-01-30T01:24:01;9.05;;;4.38;;
10947;SDS011;5526;42.070;24.752;2024-01-30T01:26:28;6.60;;;4.40;;
10947;SDS011;5526;42.070;24.752;2024-01-30T01:28:56;8.82;;;5.35;;
10947;SDS011;5526;42.070;24.752;2024-01-30T01:31:26;7.40;;;4.45;;
10947;SDS011;5526;42.070;24.752;2024-01-30T01:33:54;6.30;;;4.10;;
10947;SDS011;5526;42.070;24.752;2024-01-30T01:36:23;11.13;;;4.53;;
10947;SDS011;5526;42.070;24.752;2024-01-30T01:38:50;6.65;;;3.90;;
10947;SDS011;5526;42.070;24.752;2024-01-30T01:41:17;6.60;;;3.63;;
10947;SDS011;5526;42.070;24.752;2024-01-30T01:43:44;6.18;;;3.65;;
10947;SDS011;5526;42.070;24.752;2024-01-30T01:46:11;6.07;;;3.58;;
10947;SDS011;5526;42.070;24.752;2024-01-30T01:48:39;5.45;;;3.75;;
10947;SDS011;5526;42.070;24.752;2024-01-30T01:51:07;4.78;;;3.70;;
10947;SDS011;5526;42.070;24.752;2024-01-30T01:53:37;4.85;;;3.42;;
10947;SDS011;5526;42.070;24.752;2024-01-30T01:56:05;5.43;;;3.45;;
10947;SDS011;5526;42.070;24.752;2024-01-30T01:58:33;7.57;;;5.55;;
10947;SDS011;5526;42.070;24.752;2024-01-30T02:01:00;5.82;;;5.00;;
10947;SDS011;5526;42.070;24.752;2024-01-30T02:03:28;4.82;;;4.15;;
10947;SDS011;5526;42.070;24.752;2024-01-30T02:05:56;4.72;;;4.13;;
10947;SDS011;5526;42.070;24.752;2024-01-30T02:08:23;4.40;;;3.22;;
10947;SDS011;5526;42.070;24.752;2024-01-30T02:10:52;3.42;;;3.13;;
10947;SDS011;5526;42.070;24.752;2024-01-30T02:13:20;4.00;;;3.63;;
10947;SDS011;5526;42.070;24.752;2024-01-30T02:15:48;16.77;;;9.48;;
10947;SDS011;5526;42.070;24.752;2024-01-30T02:18:16;12.20;;;7.65;;
10947;SDS011;5526;42.070;24.752;2024-01-30T02:20:45;10.85;;;7.60;;
10947;SDS011;5526;42.070;24.752;2024-01-30T02:23:14;9.00;;;6.25;;
10947;SDS011;5526;42.070;24.752;2024-01-30T02:25:42;7.47;;;5.72;;
10947;SDS011;5526;42.070;24.752;2024-01-30T02:28:10;7.82;;;5.90;;
10947;SDS011;5526;42.070;24.752;2024-01-30T02:30:38;11.57;;;7.85;;
10947;SDS011;5526;42.070;24.752;2024-01-30T02:33:05;9.73;;;7.15;;
10947;SDS011;5526;42.070;24.752;2024-01-30T02:35:32;7.40;;;5.30;;
10947;SDS011;5526;42.070;24.752;2024-01-30T02:38:00;5.13;;;4.25;;
10947;SDS011;5526;42.070;24.752;2024-01-30T02:40:29;4.45;;;4.05;;
10947;SDS011;5526;42.070;24.752;2024-01-30T02:42:57;4.28;;;3.88;;
10947;SDS011;5526;42.070;24.752;2024-01-30T02:45:25;3.17;;;2.88;;
10947;SDS011;5526;42.070;24.752;2024-01-30T02:47:52;3.53;;;3.15;;
10947;SDS011;5526;42.070;24.752;2024-01-30T02:50:20;3.65;;;3.30;;
10947;SDS011;5526;42.070;24.752;2024-01-30T02:52:47;3.28;;;2.97;;
10947;SDS011;5526;42.070;24.752;2024-01-30T02:55:14;4.15;;;3.45;;
10947;SDS011;5526;42.070;24.752;2024-01-30T02:57:44;6.30;;;4.22;;
10947;SDS011;5526;42.070;24.752;2024-01-30T03:00:12;5.60;;;4.72;;
10947;SDS011;5526;42.070;24.752;2024-01-30T03:02:39;9.50;;;5.53;;
10947;SDS011;5526;42.070;24.752;2024-01-30T03:05:07;9.15;;;6.72;;
10947;SDS011;5526;42.070;24.752;2024-01-30T03:07:35;14.52;;;8.98;;
10947;SDS011;5526;42.070;24.752;2024-01-30T03:10:02;9.63;;;7.50;;
10947;SDS011;5526;42.070;24.752;2024-01-30T03:12:30;9.80;;;6.90;;
10947;SDS011;5526;42.070;24.752;2024-01-30T03:14:58;10.27;;;7.72;;
10947;SDS011;5526;42.070;24.752;2024-01-30T03:17:26;11.57;;;9.23;;
10947;SDS011;5526;42.070;24.752;2024-01-30T03:19:53;14.00;;;9.98;;
10947;SDS011;5526;42.070;24.752;2024-01-30T03:22:20;15.13;;;10.85;;
10947;SDS011;5526;42.070;24.752;2024-01-30T03:24:47;19.27;;;12.73;;
10947;SDS011;5526;42.070;24.752;2024-01-30T03:27:15;16.92;;;10.77;;
10947;SDS011;5526;42.070;24.752;2024-01-30T03:29:42;11.80;;;9.00;;
10947;SDS011;5526;42.070;24.752;2024-01-30T03:32:10;11.63;;;9.52;;
10947;SDS011;5526;42.070;24.752;2024-01-30T03:34:37;12.70;;;9.73;;
10947;SDS011;5526;42.070;24.752;2024-01-30T03:37:05;11.20;;;9.45;;
10947;SDS011;5526;42.070;24.752;2024-01-30T03:39:32;11.60;;;9.55;;
10947;SDS011;5526;42.070;24.752;2024-01-30T03:41:59;12.90;;;10.40;;
10947;SDS011;5526;42.070;24.752;2024-01-30T03:44:26;12.60;;;10.02;;
10947;SDS011;5526;42.070;24.752;2024-01-30T03:46:53;13.48;;;10.30;;
10947;SDS011;5526;42.070;24.752;2024-01-30T03:49:22;13.73;;;10.73;;
10947;SDS011;5526;42.070;24.752;2024-01-30T03:51:49;12.45;;;9.82;;
10947;SDS011;5526;42.070;24.752;2024-01-30T03:54:16;13.20;;;10.43;;
10947;SDS011;5526;42.070;24.752;2024-01-30T03:56:43;14.65;;;11.38;;
10947;SDS011;5526;42.070;24.752;2024-01-30T03:59:10;15.20;;;11.85;;
10947;SDS011;5526;42.070;24.752;2024-01-30T04:01:37;17.30;;;12.23;;
10947;SDS011;5526;42.070;24.752;2024-01-30T04:04:04;14.73;;;12.23;;
10947;SDS011;5526;42.070;24.752;2024-01-30T04:06:33;14.93;;;11.77;;
10947;SDS011;5526;42.070;24.752;2024-01-30T04:09:00;13.35;;;10.35;;
10947;SDS011;5526;42.070;24.752;2024-01-30T04:11:29;14.48;;;10.73;;
10947;SDS011;5526;42.070;24.752;2024-01-30T04:13:56;13.02;;;10.40;;
10947;SDS011;5526;42.070;24.752;2024-01-30T04:16:23;13.25;;;11.15;;
10947;SDS011;5526;42.070;24.752;2024-01-30T04:18:50;12.68;;;10.13;;
10947;SDS011;5526;42.070;24.752;2024-01-30T04:21:18;11.95;;;9.75;;
10947;SDS011;5526;42.070;24.752;2024-01-30T04:23:48;12.25;;;10.35;;
10947;SDS011;5526;42.070;24.752;2024-01-30T04:26:15;11.70;;;9.55;;
10947;SDS011;5526;42.070;24.752;2024-01-30T04:28:44;14.57;;;9.93;;
10947;SDS011;5526;42.070;24.752;2024-01-30T04:31:11;12.43;;;9.07;;
10947;SDS011;5526;42.070;24.752;2024-01-30T04:33:38;17.30;;;14.18;;
10947;SDS011;5526;42.070;24.752;2024-01-30T04:36:08;12.32;;;9.48;;
10947;SDS011;5526;42.070;24.752;2024-01-30T04:38:36;12.20;;;7.82;;
10947;SDS011;5526;42.070;24.752;2024-01-30T04:41:05;9.75;;;7.78;;
10947;SDS011;5526;42.070;24.752;2024-01-30T04:43:32;10.43;;;8.43;;
10947;SDS011;5526;42.070;24.752;2024-01-30T04:45:59;11.45;;;8.82;;
10947;SDS011;5526;42.070;24.752;2024-01-30T04:48:26;9.98;;;8.40;;
10947;SDS011;5526;42.070;24.752;2024-01-30T04:50:53;9.77;;;8.55;;
10947;SDS011;5526;42.070;24.752;2024-01-30T04:53:21;8.75;;;7.85;;
10947;SDS011;5526;42.070;24.752;2024-01-30T04:55:48;11.43;;;8.68;;
10947;SDS011;5526;42.070;24.752;2024-01-30T04:58:16;11.38;;;8.63;;
10947;SDS011;5526;42.070;24.752;2024-01-30T05:00:43;10.73;;;8.75;;
10947;SDS011;5526;42.070;24.752;2024-01-30T05:03:11;10.02;;;8.82;;
10947;SDS011;5526;42.070;24.752;2024-01-30T05:05:38;10.55;;;9.02;;
10947;SDS011;5526;42.070;24.752;2024-01-30T05:08:05;10.52;;;8.77;;
10947;SDS011;5526;42.070;24.752;2024-01-30T05:10:32;13.80;;;10.68;;
10947;SDS011;5526;42.070;24.752;2024-01-30T05:12:59;11.68;;;9.30;;
10947;SDS011;5526;42.070;24.752;2024-01-30T05:15:28;10.05;;;8.85;;
10947;SDS011;5526;42.070;24.752;2024-01-30T05:17:55;11.60;;;9.15;;
10947;SDS011;5526;42.070;24.752;2024-01-30T05:20:22;11.48;;;9.85;;
10947;SDS011;5526;42.070;24.752;2024-01-30T05:22:49;29.02;;;20.08;;
10947;SDS011;5526;42.070;24.752;2024-01-30T05:25:16;12.95;;;10.48;;
10947;SDS011;5526;42.070;24.752;2024-01-30T05:27:43;11.98;;;9.27;;
10947;SDS011;5526;42.070;24.752;2024-01-30T05:30:10;16.42;;;11.57;;
10947;SDS011;5526;42.070;24.752;2024-01-30T05:32:39;24.60;;;16.40;;
10947;SDS011;5526;42.070;24.752;2024-01-30T05:35:06;38.17;;;25.20;;
10947;SDS011;5526;42.070;24.752;2024-01-30T05:37:34;41.22;;;24.98;;
10947;SDS011;5526;42.070;24.752;2024-01-30T05:40:01;38.58;;;22.90;;
10947;SDS011;5526;42.070;24.752;2024-01-30T05:42:29;17.30;;;12.32;;
10947;SDS011;5526;42.070;24.752;2024-01-30T05:44:56;18.40;;;13.93;;
10947;SDS011;5526;42.070;24.752;2024-01-30T05:47:23;29.25;;;18.15;;
10947;SDS011;5526;42.070;24.752;2024-01-30T05:49:52;37.00;;;22.73;;
10947;SDS011;5526;42.070;24.752;2024-01-30T05:52:19;16.30;;;12.98;;
10947;SDS011;5526;42.070;24.752;2024-01-30T05:54:46;10.90;;;9.30;;
10947;SDS011;5526;42.070;24.752;2024-01-30T05:57:13;9.63;;;8.63;;
10947;SDS011;5526;42.070;24.752;2024-01-30T05:59:40;10.25;;;8.35;;
10947;SDS011;5526;42.070;24.752;2024-01-30T06:02:07;10.10;;;7.95;;
10947;SDS011;5526;42.070;24.752;2024-01-30T06:04:34;9.70;;;8.35;;
10947;SDS011;5526;42.070;24.752;2024-01-30T06:07:03;12.10;;;9.30;;
10947;SDS011;5526;42.070;24.752;2024-01-30T06:09:31;12.55;;;9.48;;
10947;SDS011;5526;42.070;24.752;2024-01-30T06:11:58;13.07;;;9.25;;
10947;SDS011;5526;42.070;24.752;2024-01-30T06:14:25;14.88;;;10.70;;
10947;SDS011;5526;42.070;24.752;2024-01-30T06:16:52;21.67;;;11.05;;
10947;SDS011;5526;42.070;24.752;2024-01-30T06:19:19;11.65;;;10.00;;
10947;SDS011;5526;42.070;24.752;2024-01-30T06:21:46;13.23;;;9.98;;
10947;SDS011;5526;42.070;24.752;2024-01-30T06:24:15;30.65;;;20.65;;
10947;SDS011;5526;42.070;24.752;2024-01-30T06:26:42;26.73;;;18.98;;
10947;SDS011;5526;42.070;24.752;2024-01-30T06:29:09;40.90;;;23.75;;
10947;SDS011;5526;42.070;24.752;2024-01-30T06:31:39;35.03;;;22.15;;
10947;SDS011;5526;42.070;24.752;2024-01-30T06:34:07;20.15;;;14.13;;
10947;SDS011;5526;42.070;24.752;2024-01-30T06:36:35;20.70;;;14.20;;
10947;SDS011;5526;42.070;24.752;2024-01-30T06:39:02;18.55;;;11.82;;
10947;SDS011;5526;42.070;24.752;2024-01-30T06:41:31;14.82;;;10.73;;
10947;SDS011;5526;42.070;24.752;2024-01-30T06:43:58;18.67;;;12.05;;
10947;SDS011;5526;42.070;24.752;2024-01-30T06:46:25;18.65;;;15.32;;
10947;SDS011;5526;42.070;24.752;2024-01-30T06:48:52;18.92;;;16.23;;
10947;SDS011;5526;42.070;24.752;2024-01-30T06:51:20;32.78;;;21.48;;
10947;SDS011;5526;42.070;24.752;2024-01-30T06:53:47;25.52;;;19.90;;
10947;SDS011;5526;42.070;24.752;2024-01-30T06:56:14;24.40;;;17.20;;
10947;SDS011;5526;42.070;24.752;2024-01-30T06:58:43;20.90;;;15.35;;
10947;SDS011;5526;42.070;24.752;2024-01-30T07:01:10;19.98;;;14.38;;
10947;SDS011;5526;42.070;24.752;2024-01-30T07:03:37;26.10;;;18.13;;
10947;SDS011;5526;42.070;24.752;2024-01-30T07:06:04;19.90;;;15.75;;
10947;SDS011;5526;42.070;24.752;2024-01-30T07:08:31;21.13;;;16.75;;
10947;SDS011;5526;42.070;24.752;2024-01-30T07:10:58;18.45;;;16.45;;
10947;SDS011;5526;42.070;24.752;2024-01-30T07:13:27;20.77;;;16.65;;
10947;SDS011;5526;42.070;24.752;2024-01-30T07:15:55;20.70;;;17.50;;
10947;SDS011;5526;42.070;24.752;2024-01-30T07:18:22;25.23;;;18.75;;
10947;SDS011;5526;42.070;24.752;2024-01-30T07:20:49;22.55;;;17.73;;
10947;SDS011;5526;42.070;24.752;2024-01-30T07:23:17;18.50;;;14.52;;
10947;SDS011;5526;42.070;24.752;2024-01-30T07:25:44;20.80;;;12.95;;
10947;SDS011;5526;42.070;24.752;2024-01-30T07:28:10;17.15;;;13.13;;
10947;SDS011;5526;42.070;24.752;2024-01-30T07:30:39;12.50;;;10.40;;
10947;SDS011;5526;42.070;24.752;2024-01-30T07:33:07;16.05;;;11.55;;
10947;SDS011;5526;42.070;24.752;2024-01-30T07:35:35;20.88;;;12.80;;
10947;SDS011;5526;42.070;24.752;2024-01-30T07:38:02;28.00;;;16.17;;
10947;SDS011;5526;42.070;24.752;2024-01-30T07:40:29;19.73;;;13.80;;
10947;SDS011;5526;42.070;24.752;2024-01-30T07:42:57;23.17;;;16.33;;
10947;SDS011;5526;42.070;24.752;2024-01-30T07:45:24;22.42;;;16.50;;
10947;SDS011;5526;42.070;24.752;2024-01-30T07:47:52;19.88;;;15.48;;
10947;SDS011;5526;42.070;24.752;2024-01-30T07:50:21;20.08;;;15.90;;
10947;SDS011;5526;42.070;24.752;2024-01-30T07:52:48;21.83;;;18.75;;
10947;SDS011;5526;42.070;24.752;2024-01-30T07:55:19;22.27;;;18.63;;
10947;SDS011;5526;42.070;24.752;2024-01-30T07:57:49;32.60;;;21.25;;
10947;SDS011;5526;42.070;24.752;2024-01-30T08:00:17;23.02;;;18.13;;
10947;SDS011;5526;42.070;24.752;2024-01-30T08:02:45;28.75;;;20.58;;
10947;SDS011;5526;42.070;24.752;2024-01-30T08:05:12;20.58;;;14.63;;
10947;SDS011;5526;42.070;24.752;2024-01-30T08:07:41;24.20;;;18.02;;
10947;SDS011;5526;42.070;24.752;2024-01-30T08:10:11;24.88;;;19.20;;
10947;SDS011;5526;42.070;24.752;2024-01-30T08:12:38;14.48;;;12.95;;
10947;SDS011;5526;42.070;24.752;2024-01-30T08:15:05;17.25;;;12.95;;
10947;SDS011;5526;42.070;24.752;2024-01-30T08:17:33;15.93;;;12.05;;
10947;SDS011;5526;42.070;24.752;2024-01-30T08:20:00;14.23;;;12.50;;
10947;SDS011;5526;42.070;24.752;2024-01-30T08:22:29;12.65;;;11.35;;
10947;SDS011;5526;42.070;24.752;2024-01-30T08:24:58;13.63;;;10.75;;
10947;SDS011;5526;42.070;24.752;2024-01-30T08:27:25;12.50;;;9.82;;
10947;SDS011;5526;42.070;24.752;2024-01-30T08:29:52;11.27;;;10.00;;
10947;SDS011;5526;42.070;24.752;2024-01-30T08:32:19;12.15;;;9.80;;
10947;SDS011;5526;42.070;24.752;2024-01-30T08:34:46;11.45;;;9.70;;
10947;SDS011;5526;42.070;24.752;2024-01-30T08:37:13;10.70;;;9.38;;
10947;SDS011;5526;42.070;24.752;2024-01-30T08:39:41;33.42;;;17.65;;
10947;SDS011;5526;42.070;24.752;2024-01-30T08:42:10;13.32;;;10.40;;
10947;SDS011;5526;42.070;24.752;2024-01-30T08:44:37;16.85;;;10.77;;
10947;SDS011;5526;42.070;24.752;2024-01-30T08:47:05;27.80;;;13.80;;
10947;SDS011;5526;42.070;24.752;2024-01-30T08:49:32;20.60;;;11.88;;
10947;SDS011;5526;42.070;24.752;2024-01-30T08:51:59;29.35;;;16.83;;
10947;SDS011;5526;42.070;24.752;2024-01-30T08:54:26;13.88;;;10.85;;
10947;SDS011;5526;42.070;24.752;2024-01-30T08:56:53;11.43;;;10.23;;
10947;SDS011;5526;42.070;24.752;2024-01-30T08:59:23;14.75;;;10.45;;
10947;SDS011;5526;42.070;24.752;2024-01-30T09:01:50;12.00;;;9.68;;
10947;SDS011;5526;42.070;24.752;2024-01-30T09:04:20;12.25;;;9.77;;
10947;SDS011;5526;42.070;24.752;2024-01-30T09:06:47;13.77;;;10.73;;
10947;SDS011;5526;42.070;24.752;2024-01-30T09:09:15;13.07;;;10.10;;
10947;SDS011;5526;42.070;24.752;2024-01-30T09:11:42;11.57;;;9.07;;
10947;SDS011;5526;42.070;24.752;2024-01-30T09:14:10;8.95;;;7.95;;
10947;SDS011;5526;42.070;24.752;2024-01-30T09:16:38;10.07;;;8.10;;
10947;SDS011;5526;42.070;24.752;2024-01-30T09:19:05;10.40;;;8.05;;
10947;SDS011;5526;42.070;24.752;2024-01-30T09:21:32;9.73;;;7.90;;
10947;SDS011;5526;42.070;24.752;2024-01-30T09:24:01;9.10;;;7.45;;
10947;SDS011;5526;42.070;24.752;2024-01-30T09:26:29;8.52;;;7.30;;
10947;SDS011;5526;42.070;24.752;2024-01-30T09:28:56;11.15;;;7.47;;
10947;SDS011;5526;42.070;24.752;2024-01-30T09:31:23;9.02;;;7.47;;
10947;SDS011;5526;42.070;24.752;2024-01-30T09:33:52;7.85;;;6.05;;
10947;SDS011;5526;42.070;24.752;2024-01-30T09:36:19;7.88;;;6.22;;
10947;SDS011;5526;42.070;24.752;2024-01-30T09:38:47;6.18;;;5.55;;
10947;SDS011;5526;42.070;24.752;2024-01-30T09:41:14;14.90;;;7.90;;
10947;SDS011;5526;42.070;24.752;2024-01-30T09:43:42;11.30;;;8.05;;
10947;SDS011;5526;42.070;24.752;2024-01-30T09:46:14;13.55;;;8.07;;
10947;SDS011;5526;42.070;24.752;2024-01-30T09:48:44;14.75;;;8.40;;
10947;SDS011;5526;42.070;24.752;2024-01-30T09:51:14;13.00;;;6.93;;
10947;SDS011;5526;42.070;24.752;2024-01-30T09:53:43;16.83;;;8.60;;
10947;SDS011;5526;42.070;24.752;2024-01-30T09:56:11;6.70;;;5.20;;
10947;SDS011;5526;42.070;24.752;2024-01-30T09:58:39;30.83;;;14.95;;
10947;SDS011;5526;42.070;24.752;2024-01-30T10:01:07;20.88;;;11.50;;
10947;SDS011;5526;42.070;24.752;2024-01-30T10:03:34;10.50;;;7.07;;
10947;SDS011;5526;42.070;24.752;2024-01-30T10:06:01;6.38;;;5.13;;
10947;SDS011;5526;42.070;24.752;2024-01-30T10:08:30;4.90;;;4.03;;
10947;SDS011;5526;42.070;24.752;2024-01-30T10:10:58;5.22;;;4.40;;
10947;SDS011;5526;42.070;24.752;2024-01-30T10:13:27;4.32;;;3.53;;
10947;SDS011;5526;42.070;24.752;2024-01-30T10:15:54;5.80;;;3.47;;
10947;SDS011;5526;42.070;24.752;2024-01-30T10:18:23;3.08;;;2.78;;
10947;SDS011;5526;42.070;24.752;2024-01-30T10:20:51;3.20;;;2.90;;
10947;SDS011;5526;42.070;24.752;2024-01-30T10:23:18;2.78;;;2.58;;
10947;SDS011;5526;42.070;24.752;2024-01-30T10:25:47;3.33;;;3.03;;
10947;SDS011;5526;42.070;24.752;2024-01-30T10:28:14;3.35;;;3.03;;
10947;SDS011;5526;42.070;24.752;2024-01-30T10:30:41;2.97;;;2.75;;
10947;SDS011;5526;42.070;24.752;2024-01-30T10:33:08;3.42;;;2.55;;
10947;SDS011;5526;42.070;24.752;2024-01-30T10:35:35;2.97;;;2.70;;
10947;SDS011;5526;42.070;24.752;2024-01-30T10:38:02;2.75;;;2.55;;
10947;SDS011;5526;42.070;24.752;2024-01-30T10:40:32;3.42;;;3.00;;
10947;SDS011;5526;42.070;24.752;2024-01-30T10:43:04;4.20;;;3.30;;
10947;SDS011;5526;42.070;24.752;2024-01-30T10:45:34;3.92;;;2.88;;
10947;SDS011;5526;42.070;24.752;2024-01-30T10:48:04;2.53;;;2.33;;
10947;SDS011;5526;42.070;24.752;2024-01-30T10:50:35;2.13;;;1.98;;
10947;SDS011;5526;42.070;24.752;2024-01-30T10:53:03;2.30;;;2.10;;
10947;SDS011;5526;42.070;24.752;2024-01-30T10:55:31;3.95;;;2.47;;
10947;SDS011;5526;42.070;24.752;2024-01-30T10:58:00;2.08;;;1.88;;
10947;SDS011;5526;42.070;24.752;2024-01-30T11:00:28;2.85;;;2.25;;
10947;SDS011;5526;42.070;24.752;2024-01-30T11:02:58;2.33;;;2.13;;
10947;SDS011;5526;42.070;24.752;2024-01-30T11:05:27;4.03;;;2.13;;
10947;SDS011;5526;42.070;24.752;2024-01-30T11:07:55;2.30;;;2.17;;
10947;SDS011;5526;42.070;24.752;2024-01-30T11:10:22;2.58;;;2.20;;
10947;SDS011;5526;42.070;24.752;2024-01-30T11:12:51;2.95;;;2.70;;
10947;SDS011;5526;42.070;24.752;2024-01-30T11:15:18;3.05;;;2.85;;
10947;SDS011;5526;42.070;24.752;2024-01-30T11:17:51;3.53;;;3.10;;
10947;SDS011;5526;42.070;24.752;2024-01-30T11:20:19;2.78;;;2.50;;
10947;SDS011;5526;42.070;24.752;2024-01-30T11:22:49;2.70;;;2.50;;
10947;SDS011;5526;42.070;24.752;2024-01-30T11:25:19;3.50;;;2.80;;
10947;SDS011;5526;42.070;24.752;2024-01-30T11:27:47;2.65;;;2.40;;
10947;SDS011;5526;42.070;24.752;2024-01-30T11:30:23;2.60;;;2.40;;
10947;SDS011;5526;42.070;24.752;2024-01-30T11:32:59;2.92;;;2.72;;
10947;SDS011;5526;42.070;24.752;2024-01-30T11:35:27;3.20;;;2.90;;
10947;SDS011;5526;42.070;24.752;2024-01-30T11:37:57;3.03;;;2.70;;
10947;SDS011;5526;42.070;24.752;2024-01-30T11:40:25;4.57;;;3.45;;
10947;SDS011;5526;42.070;24.752;2024-01-30T11:42:54;3.40;;;2.65;;
10947;SDS011;5526;42.070;24.752;2024-01-30T11:45:22;5.88;;;4.43;;
10947;SDS011;5526;42.070;24.752;2024-01-30T11:47:49;3.40;;;3.10;;
10947;SDS011;5526;42.070;24.752;2024-01-30T11:50:17;5.75;;;2.88;;
10947;SDS011;5526;42.070;24.752;2024-01-30T11:52:44;2.70;;;2.50;;
10947;SDS011;5526;42.070;24.752;2024-01-30T11:55:12;2.30;;;2.10;;
10947;SDS011;5526;42.070;24.752;2024-01-30T11:57:41;2.38;;;2.17;;
10947;SDS011;5526;42.070;24.752;2024-01-30T12:00:14;2.22;;;2.03;;
10947;SDS011;5526;42.070;24.752;2024-01-30T12:02:42;2.72;;;2.53;;
10947;SDS011;5526;42.070;24.752;2024-01-30T12:05:09;2.95;;;2.05;;
10947;SDS011;5526;42.070;24.752;2024-01-30T12:07:38;3.22;;;2.92;;
10947;SDS011;5526;42.070;24.752;2024-01-30T12:10:05;2.88;;;2.58;;
10947;SDS011;5526;42.070;24.752;2024-01-30T12:12:35;2.45;;;2.25;;
10947;SDS011;5526;42.070;24.752;2024-01-30T12:15:03;2.10;;;2.00;;
10947;SDS011;5526;42.070;24.752;2024-01-30T12:17:31;2.58;;;2.20;;
10947;SDS011;5526;42.070;24.752;2024-01-30T12:20:03;2.40;;;2.20;;
10947;SDS011;5526;42.070;24.752;2024-01-30T12:22:32;2.88;;;2.58;;
10947;SDS011;5526;42.070;24.752;2024-01-30T12:25:04;2.20;;;2.10;;
10947;SDS011;5526;42.070;24.752;2024-01-30T12:27:31;3.22;;;2.55;;
10947;SDS011;5526;42.070;24.752;2024-01-30T12:29:59;3.13;;;2.88;;
10947;SDS011;5526;42.070;24.752;2024-01-30T12:32:26;3.40;;;3.10;;
10947;SDS011;5526;42.070;24.752;2024-01-30T12:34:54;3.45;;;3.15;;
10947;SDS011;5526;42.070;24.752;2024-01-30T12:37:22;3.33;;;2.67;;
10947;SDS011;5526;42.070;24.752;2024-01-30T12:39:51;3.03;;;2.80;;
10947;SDS011;5526;42.070;24.752;2024-01-30T12:42:20;3.05;;;2.72;;
10947;SDS011;5526;42.070;24.752;2024-01-30T12:44:48;3.05;;;2.75;;
10947;SDS011;5526;42.070;24.752;2024-01-30T12:47:15;3.45;;;3.15;;
10947;SDS011;5526;42.070;24.752;2024-01-30T12:49:42;5.38;;;3.97;;
10947;SDS011;5526;42.070;24.752;2024-01-30T12:52:10;6.00;;;5.15;;
10947;SDS011;5526;42.070;24.752;2024-01-30T12:54:38;5.10;;;4.60;;
10947;SDS011;5526;42.070;24.752;2024-01-30T12:57:05;5.60;;;5.03;;
10947;SDS011;5526;42.070;24.752;2024-01-30T12:59:33;4.95;;;4.45;;
10947;SDS011;5526;42.070;24.752;2024-01-30T13:02:00;4.13;;;3.72;;
10947;SDS011;5526;42.070;24.752;2024-01-30T13:04:28;3.97;;;3.67;;
10947;SDS011;5526;42.070;24.752;2024-01-30T13:06:56;4.35;;;3.88;;
10947;SDS011;5526;42.070;24.752;2024-01-30T13:09:23;4.72;;;3.85;;
10947;SDS011;5526;42.070;24.752;2024-01-30T13:11:50;4.18;;;3.65;;
10947;SDS011;5526;42.070;24.752;2024-01-30T13:14:18;4.65;;;4.25;;
10947;SDS011;5526;42.070;24.752;2024-01-30T13:16:47;5.05;;;4.35;;
10947;SDS011;5526;42.070;24.752;2024-01-30T13:19:14;5.38;;;4.00;;
10947;SDS011;5526;42.070;24.752;2024-01-30T13:21:41;4.05;;;3.25;;
10947;SDS011;5526;42.070;24.752;2024-01-30T13:24:08;3.90;;;3.53;;
10947;SDS011;5526;42.070;24.752;2024-01-30T13:26:35;4.65;;;3.75;;
10947;SDS011;5526;42.070;24.752;2024-01-30T13:29:02;3.88;;;3.47;;
10947;SDS011;5526;42.070;24.752;2024-01-30T13:31:29;5.55;;;3.50;;
10947;SDS011;5526;42.070;24.752;2024-01-30T13:33:58;4.45;;;3.88;;
10947;SDS011;5526;42.070;24.752;2024-01-30T13:36:25;4.05;;;3.65;;
10947;SDS011;5526;42.070;24.752;2024-01-30T13:38:53;4.63;;;3.63;;
10947;SDS011;5526;42.070;24.752;2024-01-30T13:41:20;4.13;;;3.72;;
10947;SDS011;5526;42.070;24.752;2024-01-30T13:43:48;4.40;;;3.65;;
10947;SDS011;5526;42.070;24.752;2024-01-30T13:46:15;5.00;;;3.67;;
10947;SDS011;5526;42.070;24.752;2024-01-30T13:48:42;4.70;;;3.40;;
10947;SDS011;5526;42.070;24.752;2024-01-30T13:51:11;4.07;;;3.53;;
10947;SDS011;5526;42.070;24.752;2024-01-30T13:53:38;4.35;;;3.78;;
10947;SDS011;5526;42.070;24.752;2024-01-30T13:56:05;6.22;;;4.30;;
10947;SDS011;5526;42.070;24.752;2024-01-30T13:58:32;5.75;;;4.22;;
10947;SDS011;5526;42.070;24.752;2024-01-30T14:01:01;6.28;;;4.78;;
10947;SDS011;5526;42.070;24.752;2024-01-30T14:03:28;4.13;;;3.70;;
10947;SDS011;5526;42.070;24.752;2024-01-30T14:05:55;4.82;;;3.80;;
10947;SDS011;5526;42.070;24.752;2024-01-30T14:08:24;4.90;;;3.95;;
10947;SDS011;5526;42.070;24.752;2024-01-30T14:10:53;4.70;;;3.58;;
10947;SDS011;5526;42.070;24.752;2024-01-30T14:13:21;5.03;;;4.40;;
10947;SDS011;5526;42.070;24.752;2024-01-30T14:15:50;5.70;;;3.83;;
10947;SDS011;5526;42.070;24.752;2024-01-30T14:18:17;4.97;;;3.75;;
10947;SDS011;5526;42.070;24.752;2024-01-30T14:20:44;5.03;;;3.50;;
10947;SDS011;5526;42.070;24.752;2024-01-30T14:23:11;3.92;;;3.40;;
10947;SDS011;5526;42.070;24.752;2024-01-30T14:25:40;4.60;;;4.03;;
10947;SDS011;5526;42.070;24.752;2024-01-30T14:28:07;4.75;;;3.60;;
10947;SDS011;5526;42.070;24.752;2024-01-30T14:30:34;4.95;;;3.88;;
10947;SDS011;5526;42.070;24.752;2024-01-30T14:33:02;4.85;;;4.40;;
10947;SDS011;5526;42.070;24.752;2024-01-30T14:35:29;4.68;;;4.10;;
10947;SDS011;5526;42.070;24.752;2024-01-30T14:37:56;5.95;;;4.50;;
10947;SDS011;5526;42.070;24.752;2024-01-30T14:40:23;6.95;;;6.25;;